Time;durP1;ratioP1;P1;durP2;ratioP2;P2;SDS_P1;SDS_P2;PMS_P1;PMS_P2;Temp;Humidity;BMP_temperature;BMP_pressure;BME280_temperature;BME280_humidity;BME280_pressure;Samples;Min_cycle;Max_cycle;Signal;HPM_P1;HPM_P2
2022/08/03 00:01:15;;;;;;;11.80;3.28;;;;;;;23.75;59.79;101447.66;5047743;28;20085;-64
2022/08/03 00:03:41;;;;;;;8.18;3.40;;;;;;;23.77;59.97;101442.50;5049003;28;20052;-64
2022/08/03 00:06:06;;;;;;;9.15;3.60;;;;;;;23.72;59.63;101442.66;5049199;28;20028;-64
2022/08/03 00:08:31;;;;;;;11.55;3.50;;;;;;;23.71;59.56;101444.66;5041510;28;20022;-64
2022/08/03 00:10:57;;;;;;;8.18;3.60;;;;;;;23.64;59.98;101435.75;5042267;28;20029;-64
2022/08/03 00:13:22;;;;;;;8.90;3.28;;;;;;;23.62;60.08;101432.44;5045250;28;20167;-64
2022/08/03 00:15:48;;;;;;;8.02;3.00;;;;;;;23.59;60.29;101433.06;5051430;28;20379;-64
2022/08/03 00:18:13;;;;;;;12.60;3.95;;;;;;;23.61;60.17;101435.56;5049449;28;20120;-63
2022/08/03 00:20:38;;;;;;;10.23;4.05;;;;;;;23.61;60.29;101435.56;5045657;28;20028;-64
2022/08/03 00:23:04;;;;;;;6.10;2.92;;;;;;;23.59;60.07;101438.75;5051080;28;20025;-63
2022/08/03 00:25:30;;;;;;;7.75;3.13;;;;;;;23.57;60.08;101435.38;5049785;28;20476;-64
2022/08/03 00:27:55;;;;;;;6.97;3.10;;;;;;;23.49;60.50;101433.34;5045856;28;20040;-63
2022/08/03 00:30:20;;;;;;;10.07;3.20;;;;;;;23.54;60.20;101433.25;5036385;28;20091;-63
2022/08/03 00:32:46;;;;;;;6.45;3.03;;;;;;;23.53;60.23;101432.38;5041977;28;20025;-64
2022/08/03 00:35:11;;;;;;;8.68;2.90;;;;;;;23.48;60.45;101426.03;5048124;28;20032;-63
2022/08/03 00:37:37;;;;;;;6.38;3.22;;;;;;;23.46;60.52;101434.88;5050021;28;20025;-63
2022/08/03 00:40:02;;;;;;;9.10;3.55;;;;;;;23.38;60.55;101431.97;5049436;28;20025;-64
2022/08/03 00:42:28;;;;;;;6.32;3.13;;;;;;;23.34;60.49;101431.78;5040712;28;20037;-64
2022/08/03 00:44:53;;;;;;;8.52;3.42;;;;;;;23.39;60.55;101428.81;5043500;28;20121;-64
2022/08/03 00:47:18;;;;;;;9.38;3.17;;;;;;;23.40;60.48;101429.66;5050724;28;20029;-64
2022/08/03 00:49:44;;;;;;;10.02;3.13;;;;;;;23.40;60.27;101422.00;5041360;28;20033;-64
2022/08/03 00:52:10;;;;;;;7.10;2.90;;;;;;;23.40;60.28;101421.16;5045757;28;20049;-64
2022/08/03 00:54:39;;;;;;;8.95;3.58;;;;;;;23.30;60.79;101413.75;5044033;28;20095;-63
2022/08/03 00:57:05;;;;;;;8.35;3.30;;;;;;;23.36;60.49;101420.97;5053366;28;20040;-64
2022/08/03 00:59:31;;;;;;;10.38;3.30;;;;;;;23.35;60.76;101412.81;5051888;28;20383;-64
2022/08/03 01:01:57;;;;;;;7.45;3.20;;;;;;;23.34;60.74;101408.28;5051290;28;20029;-64
2022/08/03 01:04:22;;;;;;;7.25;3.22;;;;;;;23.29;61.13;101409.28;5050268;28;20037;-64
2022/08/03 01:07:10;;;;;;;7.03;3.20;;;;;;;23.35;60.42;101407.97;5052098;28;20032;-64
2022/08/03 01:10:00;;;;;;;6.07;2.95;;;;;;;23.34;60.11;101409.13;5053100;28;20040;-64
2022/08/03 01:12:37;;;;;;;9.13;3.70;;;;;;;23.29;60.97;101412.09;5050285;28;20044;-64
2022/08/03 01:15:22;;;;;;;11.90;3.53;;;;;;;23.28;60.89;101411.28;5052595;28;20121;-64
2022/08/03 01:18:37;;;;;;;9.13;3.28;;;;;;;23.32;60.31;101407.78;5050987;28;20082;-64
2022/08/03 01:21:16;;;;;;;9.60;3.10;;;;;;;23.21;60.98;101404.41;5024895;28;20048;-64
2022/08/03 01:23:55;;;;;;;10.10;3.30;;;;;;;23.24;60.78;101403.75;5048528;28;20040;-63
2022/08/03 01:26:52;;;;;;;9.10;3.38;;;;;;;23.22;60.41;101401.22;5039932;28;20064;-63
2022/08/03 01:29:32;;;;;;;9.57;3.40;;;;;;;23.16;61.16;101399.72;5052828;28;20033;-64
2022/08/03 01:32:01;;;;;;;9.88;3.00;;;;;;;23.19;60.90;101403.91;5040857;28;20041;-64
2022/08/03 01:34:33;;;;;;;7.20;3.00;;;;;;;23.17;61.13;101401.38;5048963;28;20097;-64
2022/08/03 01:37:01;;;;;;;10.48;3.30;;;;;;;23.13;61.23;101397.53;5039947;28;20029;-64
2022/08/03 01:39:29;;;;;;;9.70;3.03;;;;;;;23.13;61.26;101397.53;5050167;28;20098;-63
2022/08/03 01:41:58;;;;;;;11.02;2.92;;;;;;;23.13;61.31;101405.19;5048435;28;20030;-64
2022/08/03 01:44:28;;;;;;;9.30;3.15;;;;;;;23.14;61.62;101399.19;5042316;28;20353;-64
2022/08/03 01:46:57;;;;;;;11.38;3.35;;;;;;;23.12;61.46;101395.03;5046310;28;20025;-64
2022/08/03 01:49:24;;;;;;;7.00;3.00;;;;;;;23.10;61.58;101400.19;5051751;28;20075;-63
2022/08/03 01:51:51;;;;;;;9.23;2.92;;;;;;;23.12;61.20;101395.03;5041051;28;20041;-63
2022/08/03 01:54:17;;;;;;;11.13;3.28;;;;;;;23.06;61.44;101391.50;5040744;28;20476;-63
2022/08/03 01:56:45;;;;;;;8.00;2.97;;;;;;;23.07;61.82;101393.19;5047258;28;20567;-63
2022/08/03 01:59:14;;;;;;;11.95;3.22;;;;;;;23.06;61.35;101394.31;5049432;28;20025;-63
2022/08/03 02:01:41;;;;;;;8.23;2.80;;;;;;;23.06;61.56;101391.50;5052912;28;20028;-63
2022/08/03 02:04:08;;;;;;;7.28;3.28;;;;;;;23.04;61.46;101393.81;5049594;28;20063;-63
2022/08/03 02:06:35;;;;;;;9.55;3.05;;;;;;;23.07;61.42;101395.16;5045879;28;20037;-63
2022/08/03 02:09:01;;;;;;;6.65;2.72;;;;;;;23.05;61.44;101389.00;5049856;28;20029;-64
2022/08/03 02:11:31;;;;;;;9.98;2.97;;;;;;;22.97;61.48;101387.78;5051379;28;20033;-64
2022/08/03 02:13:59;;;;;;;7.38;2.83;;;;;;;22.94;61.76;101391.25;5052981;28;20029;-63
2022/08/03 02:16:26;;;;;;;10.63;3.10;;;;;;;22.93;61.33;101386.75;5042817;28;20103;-64
2022/08/03 02:18:52;;;;;;;8.35;2.85;;;;;;;22.94;61.65;101391.25;5044585;28;20487;-64
2022/08/03 02:21:19;;;;;;;10.02;3.13;;;;;;;22.92;61.86;101382.25;5049644;28;20804;-64
2022/08/03 02:23:44;;;;;;;6.47;2.85;;;;;;;22.93;61.71;101386.75;5051638;28;20484;-64
2022/08/03 02:26:14;;;;;;;9.73;3.38;;;;;;;22.86;61.73;101389.19;5052179;28;20031;-64
2022/08/03 02:28:44;;;;;;;10.48;2.97;;;;;;;22.89;61.76;101386.53;5041961;28;20029;-63
2022/08/03 02:31:16;;;;;;;10.48;3.22;;;;;;;22.87;61.97;101385.19;5036591;28;20051;-64
2022/08/03 02:33:51;;;;;;;10.38;3.60;;;;;;;22.86;61.98;101386.34;5045256;28;20057;-65
2022/08/03 02:36:20;;;;;;;8.70;3.10;;;;;;;22.87;61.71;101382.34;5052686;28;20028;-63
2022/08/03 02:38:50;;;;;;;11.52;3.17;;;;;;;22.88;61.68;101378.38;5040716;28;20041;-64
2022/08/03 02:41:21;;;;;;;11.13;3.40;;;;;;;22.82;62.02;101377.66;5047493;28;20029;-64
2022/08/03 02:43:50;;;;;;;9.65;3.10;;;;;;;22.81;62.19;101378.00;5044507;28;20872;-63
2022/08/03 02:46:18;;;;;;;7.18;2.95;;;;;;;22.85;61.92;101381.84;5052072;28;20120;-63
2022/08/03 02:48:46;;;;;;;9.27;3.83;;;;;;;22.81;61.88;101381.66;5040970;28;20083;-64
2022/08/03 02:51:13;;;;;;;13.88;3.85;;;;;;;22.74;62.19;101382.09;5041644;28;20032;-63
2022/08/03 02:53:40;;;;;;;8.18;3.22;;;;;;;22.83;61.81;101376.50;5047963;28;20116;-64
2022/08/03 02:56:06;;;;;;;10.95;4.15;;;;;;;22.74;62.51;101376.44;5052257;28;20481;-64
2022/08/03 02:58:33;;;;;;;13.38;4.00;;;;;;;22.79;62.07;101376.34;5039324;28;20036;-64
2022/08/03 03:01:00;;;;;;;8.20;3.55;;;;;;;22.79;62.23;101370.69;5040693;28;20100;-64
2022/08/03 03:03:26;;;;;;;11.23;3.80;;;;;;;22.79;61.96;101366.97;5048254;28;20576;-64
2022/08/03 03:05:52;;;;;;;9.57;3.65;;;;;;;22.82;61.93;101374.84;5051828;28;20040;-64
2022/08/03 03:08:20;;;;;;;9.90;3.60;;;;;;;22.79;61.96;101373.50;5043887;28;20030;-64
2022/08/03 03:10:46;;;;;;;8.55;3.78;;;;;;;22.75;61.79;101369.66;5041716;28;20530;-64
2022/08/03 03:13:14;;;;;;;9.02;3.58;;;;;;;22.72;62.29;101367.47;5048056;28;20064;-62
2022/08/03 03:15:41;;;;;;;8.07;3.72;;;;;;;22.75;61.81;101374.44;5034676;28;20109;-64
2022/08/03 03:18:08;;;;;;;8.52;3.75;;;;;;;22.63;62.19;101371.38;5052021;28;20017;-64
2022/08/03 03:20:35;;;;;;;9.70;4.15;;;;;;;22.67;61.97;101370.41;5041338;28;20041;-64
2022/08/03 03:23:02;;;;;;;8.25;3.65;;;;;;;22.67;62.13;101372.41;5050824;28;20032;-64
2022/08/03 03:25:32;;;;;;;7.60;3.42;;;;;;;22.70;61.71;101366.94;5050820;28;20029;-64
2022/08/03 03:27:59;;;;;;;9.85;3.67;;;;;;;22.63;61.92;101372.19;5041747;28;20028;-64
2022/08/03 03:30:25;;;;;;;10.57;3.40;;;;;;;22.70;61.62;101368.94;5042158;28;20763;-64
2022/08/03 03:32:51;;;;;;;11.85;4.07;;;;;;;22.68;61.79;101365.59;5044092;28;20028;-64
2022/08/03 03:35:17;;;;;;;11.13;4.35;;;;;;;22.52;62.01;101368.81;5046688;28;20583;-64
2022/08/03 03:37:42;;;;;;;12.82;3.92;;;;;;;22.54;61.76;101363.66;5047352;28;20029;-64
2022/08/03 03:40:08;;;;;;;6.82;3.08;;;;;;;22.65;61.53;101363.41;5036327;28;20120;-64
2022/08/03 03:42:34;;;;;;;7.63;3.40;;;;;;;22.62;61.74;101364.06;5041196;28;20029;-64
2022/08/03 03:45:03;;;;;;;9.38;4.03;;;;;;;22.53;61.54;101370.47;5045211;28;20029;-64
2022/08/03 03:47:28;;;;;;;8.35;3.85;;;;;;;22.47;62.06;101365.28;5038971;28;20024;-64
2022/08/03 03:49:56;;;;;;;13.02;3.72;;;;;;;22.56;61.39;101371.84;5044269;28;20495;-63
2022/08/03 03:52:21;;;;;;;11.48;3.88;;;;;;;22.55;61.38;101364.50;5041261;28;20041;-63
2022/08/03 03:54:46;;;;;;;6.78;3.40;;;;;;;22.46;61.62;101370.09;5043891;28;21023;-63
2022/08/03 03:57:12;;;;;;;6.55;3.42;;;;;;;22.53;61.42;101364.00;5049183;28;20765;-64
2022/08/03 03:59:38;;;;;;;9.20;3.03;;;;;;;22.54;61.24;101369.31;5049924;28;20036;-64
2022/08/03 04:02:05;;;;;;;10.18;3.42;;;;;;;22.46;61.62;101366.44;5051206;28;20107;-63
2022/08/03 04:12:51;;;;;;;8.02;2.92;;;;;;;22.50;61.14;101362.63;5049159;28;20132;-63
2022/08/03 04:15:21;;;;;;;6.93;2.58;;;;;;;22.49;60.98;101360.13;5050622;28;20039;-62
2022/08/03 04:17:49;;;;;;;9.85;2.63;;;;;;;22.49;61.44;101366.63;5035297;28;20116;-64
2022/08/03 04:20:18;;;;;;;7.68;3.08;;;;;;;22.50;60.93;101365.47;5038557;28;20030;-64
2022/08/03 04:22:46;;;;;;;8.07;2.75;;;;;;;22.48;61.02;101364.97;5042363;28;20064;-63
2022/08/03 04:25:17;;;;;;;9.60;3.35;;;;;;;22.23;61.85;101369.25;5051725;28;20033;-64
2022/08/03 04:27:43;;;;;;;10.60;3.15;;;;;;;22.26;61.69;101371.44;5048665;28;20576;-64
2022/08/03 04:30:12;;;;;;;8.88;3.50;;;;;;;22.24;61.58;101370.94;5051734;28;20029;-63
2022/08/03 04:32:38;;;;;;;9.45;3.25;;;;;;;22.24;61.67;101379.41;5052556;28;20536;-63
2022/08/03 04:35:05;;;;;;;7.72;3.15;;;;;;;22.13;62.16;101368.63;5053171;28;20120;-64
2022/08/03 04:37:36;;;;;;;10.25;2.95;;;;;;;22.26;61.57;101368.59;5054274;28;20033;-63
2022/08/03 04:40:06;;;;;;;9.18;3.40;;;;;;;22.28;61.60;101371.97;5048624;28;20080;-63
2022/08/03 04:42:32;;;;;;;6.13;3.08;;;;;;;22.24;61.53;101368.09;5045333;28;20029;-63
2022/08/03 04:44:58;;;;;;;9.60;3.17;;;;;;;22.29;61.49;101372.78;5052217;28;20033;-63
2022/08/03 04:47:24;;;;;;;6.43;3.20;;;;;;;22.30;61.67;101366.81;5053872;28;20033;-64
2022/08/03 04:49:50;;;;;;;8.65;2.55;;;;;;;22.33;61.48;101381.47;5049513;28;20116;-63
2022/08/03 04:52:15;;;;;;;9.13;2.65;;;;;;;22.35;61.07;101381.97;5054558;28;20033;-63
2022/08/03 04:54:42;;;;;;;8.45;2.88;;;;;;;22.37;60.99;101382.50;5050922;28;20396;-63
2022/08/03 04:57:09;;;;;;;10.90;3.22;;;;;;;22.30;61.30;101392.25;5050652;28;20033;-63
2022/08/03 04:59:35;;;;;;;8.13;2.90;;;;;;;22.29;61.29;101395.41;5054324;28;20376;-64
2022/08/03 05:02:00;;;;;;;9.77;3.08;;;;;;;22.30;61.23;101386.59;5039578;28;20132;-63
2022/08/03 05:04:25;;;;;;;10.60;3.20;;;;;;;22.27;61.32;101395.72;5041750;28;20064;-63
2022/08/03 05:06:51;;;;;;;3.00;2.10;;;;;;;22.34;61.24;101392.47;5049606;28;20117;-63
2022/08/03 05:09:16;;;;;;;7.43;2.65;;;;;;;22.35;61.06;101398.94;5048809;28;20025;-63
2022/08/03 05:11:41;;;;;;;5.82;2.53;;;;;;;22.37;61.19;101385.34;5050906;28;20052;-64
2022/08/03 05:14:06;;;;;;;7.07;2.70;;;;;;;22.34;61.30;101402.94;5047940;28;20025;-63
2022/08/03 05:16:32;;;;;;;6.60;3.08;;;;;;;22.31;61.32;101401.56;5050336;28;20037;-64
2022/08/03 05:18:57;;;;;;;6.40;2.53;;;;;;;22.37;60.89;101407.97;5049857;28;20064;-64
2022/08/03 05:21:22;;;;;;;8.95;3.33;;;;;;;22.29;61.04;101404.72;5050806;28;20017;-62
2022/08/03 05:23:48;;;;;;;7.35;2.55;;;;;;;22.33;61.06;101412.59;5046849;28;20067;-62
2022/08/03 05:26:13;;;;;;;9.75;2.80;;;;;;;22.26;61.30;101413.00;5045768;28;20033;-63
2022/08/03 05:28:38;;;;;;;7.78;2.92;;;;;;;22.32;61.28;101408.06;5047280;28;20028;-63
2022/08/03 05:31:03;;;;;;;6.95;2.40;;;;;;;22.34;61.44;101405.75;5052179;28;20029;-62
2022/08/03 05:33:29;;;;;;;10.75;3.35;;;;;;;22.33;61.21;101409.75;5050385;28;20452;-64
2022/08/03 05:35:54;;;;;;;8.60;3.25;;;;;;;22.35;61.22;101416.75;5048601;28;20052;-63
2022/08/03 05:38:19;;;;;;;6.15;2.55;;;;;;;22.36;61.30;101414.75;5045925;28;20075;-63
2022/08/03 05:40:44;;;;;;;7.43;2.72;;;;;;;22.41;61.59;101414.66;5052032;28;20029;-63
2022/08/03 05:43:10;;;;;;;9.07;2.70;;;;;;;22.37;61.16;101419.28;5051266;28;20020;-63
2022/08/03 05:45:37;;;;;;;6.82;2.40;;;;;;;22.44;61.51;101425.31;5047502;28;20086;-63
2022/08/03 05:48:03;;;;;;;8.30;2.78;;;;;;;22.38;61.16;101418.94;5045601;28;20072;-63
2022/08/03 05:50:28;;;;;;;9.18;2.72;;;;;;;22.43;61.24;101418.81;5045706;28;20024;-62
2022/08/03 05:52:58;;;;;;;6.25;2.50;;;;;;;22.46;61.77;101431.50;5037355;28;20075;-64
2022/08/03 05:55:23;;;;;;;7.63;2.75;;;;;;;22.46;61.56;101428.66;5047643;28;20031;-63
2022/08/03 05:57:49;;;;;;;5.60;2.15;;;;;;;22.54;60.82;101419.41;5042911;28;20029;-62
2022/08/03 06:00:54;;;;;;;7.63;2.60;;;;;;;22.60;61.33;101417.28;5034995;28;20021;-68
2022/08/03 06:17:49;;;;;;;9.30;2.70;;;;;;;22.83;60.11;101415.28;4968431;28;20493;-69
2022/08/03 06:20:53;;;;;;;;;;;;;;;;;;;;;
2022/08/03 06:23:48;;;;;;;;;;;;;;;;;;;;;
2022/08/03 06:27:27;;;;;;;6.43;2.33;;;;;;;23.01;59.29;101425.59;4966997;28;20035;-67
2022/08/03 06:30:06;;;;;;;5.25;1.95;;;;;;;23.03;59.35;101418.47;4964433;28;20092;-67
2022/08/03 06:33:33;;;;;;;6.95;2.10;;;;;;;23.17;59.25;101414.72;4968207;28;20066;-68
2022/08/03 06:37:11;;;;;;;8.85;2.70;;;;;;;23.21;59.06;101422.22;4959852;28;20191;-68
2022/08/03 06:40:04;;;;;;;8.70;2.03;;;;;;;23.27;59.34;101422.94;4930412;29;20050;-69
2022/08/03 06:43:02;;;;;;;7.90;2.17;;;;;;;23.25;58.97;101416.75;4989267;28;20043;-69
2022/08/03 06:49:45;;;;;;;;;;;;;;;;;;;;;
2022/08/03 06:56:25;;;;;;;7.25;2.33;;;;;;;23.49;58.56;101433.34;4852249;29;20165;-67
2022/08/03 07:06:37;;;;;;;;;;;;;;;;;;;;;
2022/08/03 07:09:57;;;;;;;6.22;2.15;;;;;;;23.69;57.99;101434.81;4965591;28;20553;-69
2022/08/03 07:20:16;;;;;;;;;;;;;;;;;;;;;
2022/08/03 07:23:19;;;;;;;6.53;2.00;;;;;;;23.78;57.46;101435.69;4960380;28;20509;-70
2022/08/03 07:29:54;;;;;;;9.90;2.80;;;;;;;23.87;57.49;101444.22;4991120;28;19917;-70
2022/08/03 07:33:09;;;;;;;10.02;2.33;;;;;;;23.93;57.05;101451.38;4997638;28;20065;-70
2022/08/03 07:36:23;;;;;;;9.50;2.22;;;;;;;24.02;57.05;101451.44;4988122;28;20084;-69
2022/08/03 07:39:55;;;;;;;11.93;2.40;;;;;;;24.09;56.87;101451.75;5014969;28;20041;-68
2022/08/03 07:42:52;;;;;;;15.10;2.70;;;;;;;24.15;56.79;101445.59;4924868;29;20054;-67
2022/08/03 07:49:55;;;;;;;8.60;2.38;;;;;;;24.32;56.53;101443.97;5042308;28;20052;-71
2022/08/03 07:56:31;;;;;;;11.10;2.50;;;;;;;24.42;55.95;101457.88;4965031;28;20101;-67
2022/08/03 08:03:14;;;;;;;8.55;2.60;;;;;;;24.50;55.34;101445.69;4909457;28;20034;-69
2022/08/03 08:06:37;;;;;;;;;;;;;;;;;;;;;
2022/08/03 08:09:14;;;;;;;;;;;;;;;24.71;55.47;101446.66;4933826;29;20135;-69
2022/08/03 08:15:59;;;;;;;12.73;2.28;;;;;;;24.83;54.58;101454.50;4935483;29;20031;-70
2022/08/03 08:18:53;;;;;;;11.15;2.70;;;;;;;24.88;53.60;101448.69;4931647;29;20045;-68
2022/08/03 08:22:18;;;;;;;11.40;2.80;;;;;;;25.02;54.85;101434.28;4932933;29;20046;-73
2022/08/03 08:35:14;;;;;;;17.92;2.95;;;;;;;25.28;53.56;101436.25;4932000;28;20389;-68
2022/08/03 08:38:48;;;;;;;19.73;3.20;;;;;;;25.36;53.41;101438.25;5009298;28;20048;-67
2022/08/03 08:41:49;;;;;;;13.15;2.50;;;;;;;25.37;53.45;101425.69;5000355;28;20512;-69
2022/08/03 08:45:20;;;;;;;;;;;;;;;;;;;;;
2022/08/03 08:59:10;;;;;;;16.35;2.80;;;;;;;25.74;52.04;101428.88;4984937;28;20055;-68
2022/08/03 09:02:27;;;;;;;11.23;2.60;;;;;;;25.74;51.25;101426.84;4958058;28;20145;-70
2022/08/03 09:12:43;;;;;;;16.48;2.90;;;;;;;25.99;50.54;101432.78;5051108;28;20049;-74
2022/08/03 09:15:51;;;;;;;14.45;2.47;;;;;;;26.03;50.39;101434.59;5047915;28;20029;-68
2022/08/03 09:18:56;;;;;;;15.20;2.33;;;;;;;26.13;50.01;101436.19;5045259;28;20037;-69
2022/08/03 09:22:15;;;;;;;17.48;2.90;;;;;;;26.14;50.46;101435.03;5041154;28;20040;-69
2022/08/03 09:42:57;;;;;;;18.98;2.85;;;;;;;26.57;49.04;101437.59;4989098;28;20104;-70
2022/08/03 09:46:03;;;;;;;11.52;2.30;;;;;;;26.59;48.96;101426.66;5038000;28;20068;-67
2022/08/03 09:52:30;;;;;;;13.50;2.70;;;;;;;26.82;48.29;101432.00;5048263;28;20029;-67
2022/08/03 09:55:47;;;;;;;17.23;3.22;;;;;;;26.86;49.00;101428.09;4986686;28;20046;-68
2022/08/03 10:02:47;;;;;;;13.88;2.67;;;;;;;27.05;48.39;101435.28;4934393;28;20062;-69
2022/08/03 10:05:45;;;;;;;;;;;;;;;27.06;48.16;101426.38;4972287;28;20624;-70
2022/08/03 10:09:09;;;;;;;13.10;3.15;;;;;;;27.17;48.11;101421.13;4953424;28;20374;-72
2022/08/03 10:26:49;;;;;;;;;;;;;;;;;;;;;
2022/08/03 10:30:14;;;;;;;17.70;3.47;;;;;;;27.63;45.94;101419.06;5046548;28;20369;-69
2022/08/03 10:33:08;;;;;;;20.55;3.33;;;;;;;27.56;45.01;101421.66;5014603;28;20102;-73
2022/08/03 10:36:21;;;;;;;13.80;2.90;;;;;;;27.64;45.50;101407.28;5053405;28;20029;-69
2022/08/03 10:39:20;;;;;;;;;;;;;;;;;;;;;
2022/08/03 10:46:03;;;;;;;18.00;3.40;;;;;;;27.94;45.53;101404.19;5011849;28;20048;-70
2022/08/03 10:49:30;;;;;;;21.00;3.10;;;;;;;28.01;45.20;101397.88;5035245;28;20127;-72
2022/08/03 10:52:47;;;;;;;15.20;3.38;;;;;;;28.09;44.56;101388.38;5009902;28;20041;-69
2022/08/03 11:06:36;;;;;;;15.88;2.38;;;;;;;28.43;42.60;101389.03;5044390;28;20080;-70
2022/08/03 11:10:09;;;;;;;16.48;2.35;;;;;;;28.45;43.12;101383.78;5036217;28;20053;-69
2022/08/03 11:13:30;;;;;;;15.15;2.80;;;;;;;28.54;43.11;101387.31;5048534;28;20041;-69
2022/08/03 11:16:31;;;;;;;15.52;2.33;;;;;;;28.58;43.01;101371.94;4987372;28;20148;-68
2022/08/03 11:23:06;;;;;;;;;;;;;;;;;;;;;
2022/08/03 11:26:14;;;;;;;14.82;2.10;;;;;;;28.82;42.89;101373.03;5023186;28;20048;-68
2022/08/03 11:33:05;;;;;;;6.93;2.08;;;;;;;28.90;42.11;101382.63;5042816;28;20040;-68
2022/08/03 11:36:15;;;;;;;9.82;2.15;;;;;;;28.95;42.25;101379.50;5042690;28;20037;-71
2022/08/03 11:39:34;;;;;;;15.30;2.90;;;;;;;28.99;42.07;101378.44;5046653;28;20025;-70
2022/08/03 11:43:11;;;;;;;6.40;2.05;;;;;;;29.01;41.98;101378.91;5003995;28;20045;-68
2022/08/03 11:50:44;;;;;;;;;;;;;;;;;;;;;
2022/08/03 11:53:28;;;;;;;9.53;2.10;;;;;;;29.23;41.90;101368.03;4888555;28;20035;-70
2022/08/03 12:10:49;;;;;;;8.05;1.95;;;;;;;29.38;42.22;101369.25;4954036;28;20501;-68
2022/08/03 12:13:47;;;;;;;;;;;;;;;;;;;;;
2022/08/03 12:17:31;;;;;;;;;;;;;;;;;;;;;
2022/08/03 12:20:26;;;;;;;5.55;1.58;;;;;;;29.55;41.25;101374.56;4919895;28;20036;-67
2022/08/03 12:41:49;;;;;;;8.18;2.22;;;;;;;29.75;40.90;101364.91;4973297;28;20037;-67
2022/08/03 12:48:45;;;;;;;8.10;2.00;;;;;;;29.93;41.67;101371.06;4989206;28;20045;-67
2022/08/03 12:55:47;;;;;;;7.25;1.88;;;;;;;29.83;41.32;101374.50;4981324;28;20096;-68
2022/08/03 13:02:18;;;;;;;7.53;1.85;;;;;;;29.85;40.72;101366.38;5043025;28;20035;-69
2022/08/03 13:05:32;;;;;;;6.30;2.00;;;;;;;29.74;40.44;101359.56;5040763;28;20037;-67
2022/08/03 13:09:01;;;;;;;11.90;2.10;;;;;;;29.64;40.99;101363.00;5049624;28;20114;-71
2022/08/03 13:12:25;;;;;;;9.95;2.08;;;;;;;29.62;41.07;101356.81;4983321;28;20116;-68
2022/08/03 13:15:57;;;;;;;;;;;;;;;;;;;;;
2022/08/03 13:19:50;;;;;;;7.38;1.90;;;;;;;29.58;41.92;101351.81;4982038;28;20032;-67
2022/08/03 13:29:55;;;;;;;;;;;;;;;;;;;;;
2022/08/03 13:37:03;;;;;;;8.25;2.00;;;;;;;29.53;42.23;101342.66;4893418;29;20511;-74
2022/08/03 13:43:36;;;;;;;6.95;2.10;;;;;;;29.74;41.84;101342.38;5028763;28;20385;-71
2022/08/03 13:46:47;;;;;;;;;;;;;;;;;;;;;
2022/08/03 13:50:33;;;;;;;7.93;1.92;;;;;;;29.94;41.49;101338.34;5036444;28;20057;-70
2022/08/03 13:57:17;;;;;;;6.90;1.90;;;;;;;30.09;40.98;101342.38;5044456;28;20083;-71
2022/08/03 14:00:24;;;;;;;;;;;;;;;;;;;;;
2022/08/03 14:03:15;;;;;;;4.65;1.73;;;;;;;29.91;40.48;101342.00;5025940;28;20385;-68
2022/08/03 14:05:54;;;;;;;7.10;1.63;;;;;;;29.83;40.49;101334.44;5046966;28;20049;-71
2022/08/03 14:15:42;;;;;;;5.72;1.95;;;;;;;30.01;41.26;101321.34;5027751;28;20079;-71
2022/08/03 14:22:52;;;;;;;8.77;2.05;;;;;;;30.03;40.82;101316.09;5020293;28;20046;-71
2022/08/03 14:26:13;;;;;;;8.77;1.90;;;;;;;30.01;41.15;101309.06;5030615;28;20058;-69
2022/08/03 14:29:06;;;;;;;6.88;1.70;;;;;;;30.09;40.67;101303.13;5038324;28;20453;-71
2022/08/03 14:32:27;;;;;;;4.07;1.38;;;;;;;30.00;40.65;101302.53;5047405;28;20049;-70
2022/08/03 14:39:09;;;;;;;8.20;2.20;;;;;;;29.71;41.62;101295.34;5032301;28;20094;-72
2022/08/03 14:46:01;;;;;;;7.90;1.80;;;;;;;29.75;41.43;101292.53;5000504;28;20038;-71
2022/08/03 14:48:46;;;;;;;7.07;2.08;;;;;;;29.77;40.69;101290.13;5031838;28;20079;-73
2022/08/03 14:51:35;;;;;;;;;;;;;;;;;;;;;
2022/08/03 15:01:33;;;;;;;6.82;1.80;;;;;;;29.64;41.08;101280.03;4980908;28;20060;-72
2022/08/03 15:07:05;;;;;;;;;;;;;;;;;;;;;
2022/08/03 15:16:39;;;;;;;8.23;1.90;;;;;;;29.78;40.88;101268.91;5044228;28;20312;-69
2022/08/03 15:22:52;;;;;;;10.40;2.05;;;;;;;29.92;40.57;101266.38;5042975;28;20503;-73
2022/08/03 15:32:45;;;;;;;3.70;1.30;;;;;;;29.91;38.44;101259.00;4967583;28;20808;-68
2022/08/03 15:35:49;;;;;;;;;;;;;;;;;;;;;
2022/08/03 15:42:16;;;;;;;;;;;;;;;;;;;;;
2022/08/03 15:45:35;;;;;;;6.35;1.33;;;;;;;29.97;39.44;101243.16;5029047;28;20049;-69
2022/08/03 15:48:51;;;;;;;4.80;1.60;;;;;;;29.87;39.78;101231.47;4960955;28;20143;-69
2022/08/03 15:52:00;;;;;;;8.50;1.52;;;;;;;29.96;39.38;101241.50;4981608;28;20066;-68
2022/08/03 15:55:02;;;;;;;;;;;;;;;;;;;;;
2022/08/03 15:58:14;;;;;;;7.40;1.48;;;;;;;29.98;40.14;101239.09;4993324;28;20032;-71
2022/08/03 16:05:04;;;;;;;3.10;1.48;;;;;;;29.88;40.47;101230.28;4982637;28;20105;-67
2022/08/03 16:21:33;;;;;;;6.68;1.60;;;;;;;29.80;39.13;101215.00;5031277;28;20558;-68
2022/08/03 16:28:28;;;;;;;3.22;1.35;;;;;;;29.87;39.11;101226.63;4987347;28;20034;-70
2022/08/03 16:31:31;;;;;;;;;;;;;;;;;;;;;
2022/08/03 16:34:42;;;;;;;4.03;1.35;;;;;;;29.86;39.05;101219.22;4960426;28;20527;-67
2022/08/03 16:41:07;;;;;;;1.40;1.20;;;;;;;29.75;39.51;101221.00;4958849;28;20035;-66
2022/08/03 16:44:17;;;;;;;8.20;1.40;;;;;;;29.73;38.99;101214.84;4960131;28;20042;-66
2022/08/03 16:47:25;;;;;;;4.90;1.50;;;;;;;29.72;39.82;101216.06;4983778;28;20141;-66
2022/08/03 16:53:39;;;;;;;4.20;1.20;;;;;;;29.66;39.47;101208.97;4927114;28;20075;-68
2022/08/03 17:00:29;;;;;;;;;;;;;;;;;;;;;
2022/08/03 17:11:02;;;;;;;7.53;1.45;;;;;;;29.44;41.21;101202.75;4918726;29;20055;-67
2022/08/03 17:21:51;;;;;;;4.20;1.38;;;;;;;29.34;41.37;101197.59;4844349;29;20090;-68
2022/08/03 17:32:36;;;;;;;2.22;1.20;;;;;;;29.30;40.52;101203.22;4991862;28;20029;-70
2022/08/03 17:35:42;;;;;;;4.88;1.23;;;;;;;29.23;40.88;101188.75;5027928;28;20048;-72
2022/08/03 17:38:54;;;;;;;6.75;1.55;;;;;;;29.25;40.95;101197.81;5021804;28;20093;-71
2022/08/03 17:52:40;;;;;;;2.90;1.30;;;;;;;29.14;41.24;101193.88;4961868;28;20039;-68
2022/08/03 17:59:38;;;;;;;1.98;1.25;;;;;;;29.11;41.63;101209.72;4900478;29;20081;-66
2022/08/03 18:06:08;;;;;;;2.20;0.90;;;;;;;29.08;41.12;101195.34;4969008;28;20489;-65
2022/08/03 18:09:18;;;;;;;3.15;1.20;;;;;;;29.04;42.19;101203.00;4959569;28;20046;-69
2022/08/03 18:31:06;;;;;;;4.63;1.67;;;;;;;28.81;44.93;101188.53;4788470;29;20061;-63
2022/08/03 18:56:09;;;;;;;;;;;;;;;;;;;;;
2022/08/03 19:06:12;;;;;;;;;;;;;;;;;;;;;
2022/08/03 19:16:38;;;;;;;;;;;;;;;;;;;;;
2022/08/03 19:26:55;;;;;;;;;;;;;;;;;;;;;
2022/08/03 19:56:13;;;;;;;;;;;;;;;;;;;;;
2022/08/03 20:06:58;;;;;;;10.27;3.38;;;;;;;27.94;52.21;101244.41;4847285;29;20037;-66
2022/08/03 20:14:20;;;;;;;;;;;;;;;;;;;;;
2022/08/03 20:24:19;;;;;;;;;;;;;;;;;;;;;
2022/08/03 20:51:40;;;;;;;;;;;;;;;;;;;;;
2022/08/03 21:02:27;;;;;;;15.57;4.20;;;;;;;27.20;55.30;101249.44;4852575;29;20081;-70
2022/08/03 21:09:08;;;;;;;;;;;;;;;;;;;;;
2022/08/03 21:12:25;;;;;;;12.27;5.10;;;;;;;27.04;55.17;101222.78;4875598;29;20033;-65
2022/08/03 21:26:13;;;;;;;14.25;4.20;;;;;;;26.88;56.04;101219.81;4900078;29;20114;-64
2022/08/03 21:37:30;;;;;;;;;;;;;;;;;;;;;
2022/08/03 21:40:46;;;;;;;;;;;;;;;;;;;;;
2022/08/03 21:47:32;;;;;;;10.20;4.05;;;;;;;26.64;55.78;101204.34;4842091;29;20069;-64
2022/08/03 21:54:35;;;;;;;;;;;;;;;;;;;;;
2022/08/03 21:57:40;;;;;;;11.18;4.55;;;;;;;26.59;56.49;101207.44;4933251;28;20430;-66
2022/08/03 22:04:05;;;;;;;13.05;4.70;;;;;;;26.47;56.75;101198.06;4897669;28;20031;-64
2022/08/03 22:06:31;;;;;;;8.82;3.40;;;;;;;26.43;56.96;101210.13;5046411;28;20045;-62
2022/08/03 22:08:57;;;;;;;10.50;3.80;;;;;;;26.40;57.46;101207.97;5049082;28;20628;-64
2022/08/03 22:11:22;;;;;;;9.40;4.03;;;;;;;26.39;57.30;101203.47;5053830;28;20464;-64
2022/08/03 22:13:48;;;;;;;11.27;4.55;;;;;;;26.34;57.44;101200.03;5046613;28;20036;-63
2022/08/03 22:16:14;;;;;;;12.40;4.57;;;;;;;26.29;57.38;101203.94;5033512;28;20053;-63
2022/08/03 22:18:42;;;;;;;8.27;4.88;;;;;;;26.28;57.30;101201.41;5049177;28;20075;-64
2022/08/03 22:21:10;;;;;;;12.90;5.22;;;;;;;26.28;57.73;101198.56;5049382;28;20443;-64